Time;durP1;ratioP1;P1;durP2;ratioP2;P2;SDS_P1;SDS_P2;PMS_P1;PMS_P2;Temp;Humidity;BMP_temperature;BMP_pressure;BME280_temperature;BME280_humidity;BME280_pressure;Samples;Min_cycle;Max_cycle;Signal;HPM_P1;HPM_P2
2023/01/28 00:01:16;;;;;;;1.00;1.00;;;;;;;;;;5038472;28;20120;-79
2023/01/28 00:03:42;;;;;;;1.30;1.20;;;;;;;;;;5038914;28;20463;-80
2023/01/28 00:06:11;;;;;;;1.63;1.30;;;;;;;;;;5056373;28;20036;-80
2023/01/28 00:08:37;;;;;;;1.30;1.20;;;;;;;;;;5021973;28;20399;-80
2023/01/28 00:11:04;;;;;;;1.00;1.00;;;;;;;;;;5056211;28;20033;-78
2023/01/28 00:13:30;;;;;;;3.20;1.73;;;;;;;;;;5038297;28;20353;-79
2023/01/28 00:15:57;;;;;;;1.15;1.10;;;;;;;;;;5038860;28;20064;-79
2023/01/28 00:18:22;;;;;;;1.35;1.23;;;;;;;;;;5056130;28;20056;-79
2023/01/28 00:21:02;;;;;;;1.17;1.10;;;;;;;;;;5038157;28;20088;-79
2023/01/28 00:23:29;;;;;;;1.20;1.10;;;;;;;;;;5038301;28;20029;-80
2023/01/28 00:25:58;;;;;;;1.15;1.10;;;;;;;;;;5056194;28;20029;-80
2023/01/28 00:28:23;;;;;;;0.93;0.93;;;;;;;;;;5031477;28;20032;-80
2023/01/28 00:30:48;;;;;;;1.30;1.20;;;;;;;;;;5076174;28;20039;-79
2023/01/28 00:33:14;;;;;;;1.63;1.23;;;;;;;;;;5076079;28;20032;-78
2023/01/28 00:35:39;;;;;;;1.10;1.05;;;;;;;;;;5075809;28;20048;-80
2023/01/28 00:38:05;;;;;;;2.45;1.17;;;;;;;;;;5075930;28;20070;-79
2023/01/28 00:40:30;;;;;;;1.00;1.00;;;;;;;;;;5058079;28;20028;-78
2023/01/28 00:42:56;;;;;;;6.80;1.20;;;;;;;;;;5076062;28;20036;-80
2023/01/28 00:45:22;;;;;;;1.85;1.40;;;;;;;;;;5057944;28;20028;-80
2023/01/28 00:47:47;;;;;;;1.48;1.13;;;;;;;;;;5075622;28;20063;-80
2023/01/28 00:50:13;;;;;;;1.05;1.05;;;;;;;;;;5075850;28;20025;-80
2023/01/28 00:52:39;;;;;;;1.20;1.10;;;;;;;;;;5041024;28;20085;-80
2023/01/28 00:55:05;;;;;;;1.30;1.20;;;;;;;;;;5057986;28;20107;-79
2023/01/28 00:57:30;;;;;;;1.27;1.17;;;;;;;;;;5041054;28;20344;-79
2023/01/28 00:59:56;;;;;;;1.15;1.05;;;;;;;;;;5075135;28;20031;-79
2023/01/28 01:02:21;;;;;;;1.10;1.00;;;;;;;;;;5075535;28;20028;-79
2023/01/28 01:04:59;;;;;;;0.98;0.98;;;;;;;;;;5057271;28;20043;-79
2023/01/28 01:07:42;;;;;;;1.27;1.20;;;;;;;;;;5075184;28;20033;-79
2023/01/28 01:10:13;;;;;;;1.00;1.00;;;;;;;;;;5057303;28;20590;-79
2023/01/28 01:12:39;;;;;;;1.27;1.17;;;;;;;;;;5075668;28;20055;-79
2023/01/28 01:15:09;;;;;;;1.02;1.02;;;;;;;;;;5075057;28;20495;-79
2023/01/28 01:17:43;;;;;;;1.10;1.10;;;;;;;;;;5057866;28;20039;-79
2023/01/28 01:20:16;;;;;;;1.00;1.00;;;;;;;;;;5057052;28;20031;-79
2023/01/28 01:22:41;;;;;;;1.05;1.05;;;;;;;;;;5023156;28;20056;-80
2023/01/28 01:25:07;;;;;;;1.65;1.33;;;;;;;;;;5037089;28;20021;-79
2023/01/28 01:27:33;;;;;;;1.67;1.20;;;;;;;;;;5055021;28;20025;-79
2023/01/28 01:29:58;;;;;;;1.00;1.00;;;;;;;;;;5054807;28;20387;-79
2023/01/28 01:32:25;;;;;;;1.15;1.15;;;;;;;;;;5054902;28;20033;-79
2023/01/28 01:34:50;;;;;;;1.17;1.10;;;;;;;;;;5037297;28;20067;-80
2023/01/28 01:37:16;;;;;;;1.75;1.10;;;;;;;;;;5020419;28;20064;-79
2023/01/28 01:39:41;;;;;;;1.00;1.00;;;;;;;;;;5020343;28;20032;-80
2023/01/28 01:42:11;;;;;;;1.08;1.08;;;;;;;;;;5037289;28;20044;-80
2023/01/28 01:45:07;;;;;;;1.15;1.10;;;;;;;;;;5036645;28;20057;-80
2023/01/28 01:47:56;;;;;;;1.00;1.00;;;;;;;;;;5036671;28;20514;-80
2023/01/28 01:50:33;;;;;;;0.93;0.90;;;;;;;;;;5020090;28;20452;-80
2023/01/28 01:53:27;;;;;;;1.20;1.10;;;;;;;;;;5036590;28;20103;-79
2023/01/28 01:55:55;;;;;;;1.38;1.20;;;;;;;;;;5019782;28;20033;-79
2023/01/28 01:58:23;;;;;;;1.23;1.15;;;;;;;;;;5036313;28;20056;-79
2023/01/28 02:00:48;;;;;;;1.27;1.20;;;;;;;;;;5036829;28;20029;-79
2023/01/28 02:03:16;;;;;;;1.10;1.10;;;;;;;;;;5036262;28;20029;-79
2023/01/28 02:05:41;;;;;;;1.30;1.20;;;;;;;;;;5036390;28;20029;-79
2023/01/28 02:08:22;;;;;;;1.00;1.00;;;;;;;;;;5054357;28;20036;-79
2023/01/28 02:10:51;;;;;;;1.13;1.02;;;;;;;;;;5036051;28;20035;-79
2023/01/28 02:13:18;;;;;;;1.33;1.20;;;;;;;;;;5035621;28;20028;-79
2023/01/28 02:15:44;;;;;;;1.30;1.20;;;;;;;;;;5036712;28;20025;-79
2023/01/28 02:18:10;;;;;;;1.00;1.00;;;;;;;;;;5036161;28;20055;-80
2023/01/28 02:20:42;;;;;;;1.20;1.10;;;;;;;;;;5019544;28;20033;-79
2023/01/28 02:23:28;;;;;;;1.08;1.08;;;;;;;;;;5054100;28;20041;-80
2023/01/28 02:26:04;;;;;;;1.10;1.00;;;;;;;;;;5035850;28;20386;-80
2023/01/28 02:28:51;;;;;;;1.05;0.98;;;;;;;;;;5019323;28;20024;-80
2023/01/28 02:31:31;;;;;;;1.20;1.10;;;;;;;;;;5036146;28;20108;-80
2023/01/28 02:34:27;;;;;;;1.52;1.33;;;;;;;;;;5053607;28;20462;-81
2023/01/28 02:36:53;;;;;;;1.98;1.15;;;;;;;;;;5035864;28;20028;-80
2023/01/28 02:39:23;;;;;;;1.10;1.10;;;;;;;;;;5035809;28;20083;-80
2023/01/28 02:41:53;;;;;;;1.50;1.10;;;;;;;;;;5035808;28;20056;-80
2023/01/28 02:44:18;;;;;;;1.33;1.00;;;;;;;;;;5035898;28;20064;-80
2023/01/28 02:49:48;;;;;;;1.10;1.10;;;;;;;;;;5038574;28;20039;-79
2023/01/28 02:53:39;;;;;;;0.90;0.90;;;;;;;;;;5035426;28;20033;-80
2023/01/28 02:55:16;;;;;;;1.00;1.00;;;;;;;;;;5038296;28;20027;-80
2023/01/28 02:57:44;;;;;;;0.90;0.90;;;;;;;;;;5053419;28;20031;-80
2023/01/28 03:00:25;;;;;;;1.00;1.00;;;;;;;;;;5053425;28;20028;-79
2023/01/28 03:02:56;;;;;;;1.00;1.00;;;;;;;;;;5035236;28;20171;-79
2023/01/28 03:05:21;;;;;;;1.13;1.08;;;;;;;;;;5053067;28;20060;-80
2023/01/28 03:07:47;;;;;;;1.13;1.13;;;;;;;;;;5053438;28;20118;-80
2023/01/28 03:10:16;;;;;;;1.20;1.10;;;;;;;;;;5053008;28;20029;-79
2023/01/28 03:38:16;;;;;;;0.90;0.90;;;;;;;;;;5057836;28;20108;-80
2023/01/28 03:40:56;;;;;;;1.40;1.00;;;;;;;;;;5056509;28;20368;-80
2023/01/28 03:43:22;;;;;;;0.85;0.85;;;;;;;;;;5055948;28;20060;-80
2023/01/28 03:45:50;;;;;;;0.90;0.90;;;;;;;;;;5055014;28;20446;-79
2023/01/28 03:48:20;;;;;;;1.00;1.00;;;;;;;;;;5073454;28;20398;-80
2023/01/28 03:50:47;;;;;;;1.55;1.00;;;;;;;;;;5055074;28;20078;-80
2023/01/28 03:53:14;;;;;;;1.10;1.10;;;;;;;;;;5072796;28;20441;-80
2023/01/28 03:55:42;;;;;;;1.00;1.00;;;;;;;;;;5054933;28;20419;-79
2023/01/28 03:58:08;;;;;;;1.20;1.10;;;;;;;;;;5072902;28;20056;-79
2023/01/28 04:00:40;;;;;;;1.15;1.10;;;;;;;;;;5054637;28;20050;-80
2023/01/28 04:03:17;;;;;;;2.38;1.40;;;;;;;;;;5072509;28;20035;-80
2023/01/28 04:05:43;;;;;;;1.00;1.00;;;;;;;;;;5054512;28;20074;-80
2023/01/28 04:08:08;;;;;;;1.30;1.20;;;;;;;;;;5054798;28;20020;-80
2023/01/28 04:10:33;;;;;;;0.90;0.90;;;;;;;;;;5021509;28;20040;-80
2023/01/28 04:12:59;;;;;;;1.00;1.00;;;;;;;;;;5037997;28;20123;-79
2023/01/28 04:15:24;;;;;;;0.90;0.90;;;;;;;;;;5072350;28;20029;-80
2023/01/28 04:17:50;;;;;;;1.00;1.00;;;;;;;;;;5054501;28;20395;-80
2023/01/28 04:20:15;;;;;;;1.02;1.02;;;;;;;;;;5054739;28;20040;-80
2023/01/28 04:22:41;;;;;;;1.02;0.93;;;;;;;;;;5037210;28;20410;-80
2023/01/28 04:25:07;;;;;;;0.90;0.90;;;;;;;;;;5052484;28;20594;-79
2023/01/28 04:27:32;;;;;;;1.00;1.00;;;;;;;;;;5052460;28;20426;-79
2023/01/28 04:29:58;;;;;;;1.52;1.20;;;;;;;;;;5034640;28;20475;-79
2023/01/28 04:32:23;;;;;;;0.98;0.98;;;;;;;;;;5052202;28;20029;-78
2023/01/28 04:34:48;;;;;;;1.27;0.88;;;;;;;;;;5052401;28;20025;-78
2023/01/28 04:37:14;;;;;;;1.00;1.00;;;;;;;;;;5037705;28;20068;-79
2023/01/28 04:39:39;;;;;;;1.10;1.00;;;;;;;;;;5055827;28;20082;-78
2023/01/28 04:42:05;;;;;;;0.90;0.90;;;;;;;;;;5055652;28;20037;-78
2023/01/28 04:44:30;;;;;;;0.88;0.88;;;;;;;;;;5055865;28;20091;-78
2023/01/28 04:46:55;;;;;;;1.20;1.00;;;;;;;;;;5038231;28;20472;-78
2023/01/28 04:49:21;;;;;;;1.00;1.00;;;;;;;;;;5037990;28;20112;-78
2023/01/28 04:51:46;;;;;;;1.00;1.00;;;;;;;;;;5021193;28;20033;-78
2023/01/28 04:54:11;;;;;;;0.90;0.90;;;;;;;;;;5037983;28;20033;-78
2023/01/28 04:56:42;;;;;;;1.33;0.90;;;;;;;;;;5055571;28;20380;-78
2023/01/28 04:59:08;;;;;;;1.05;1.00;;;;;;;;;;5039146;28;20033;-77
2023/01/28 05:01:34;;;;;;;0.80;0.80;;;;;;;;;;5055263;28;20040;-79
2023/01/28 05:04:04;;;;;;;1.20;1.10;;;;;;;;;;5056000;28;20475;-79
2023/01/28 05:06:30;;;;;;;0.90;0.90;;;;;;;;;;5038526;28;20100;-79
2023/01/28 05:08:55;;;;;;;1.50;1.27;;;;;;;;;;5021741;28;20063;-78
2023/01/28 05:11:20;;;;;;;0.80;0.80;;;;;;;;;;5037849;28;20359;-79
2023/01/28 05:13:46;;;;;;;3.00;1.00;;;;;;;;;;5056001;28;20056;-78
2023/01/28 05:16:11;;;;;;;1.95;0.80;;;;;;;;;;5055715;28;20082;-78
2023/01/28 05:18:37;;;;;;;0.90;0.90;;;;;;;;;;5037574;28;20039;-78
2023/01/28 05:21:02;;;;;;;3.45;1.00;;;;;;;;;;5021286;28;20059;-79
2023/01/28 05:23:28;;;;;;;1.00;1.00;;;;;;;;;;5055436;28;20043;-79
2023/01/28 05:25:53;;;;;;;1.25;1.00;;;;;;;;;;5037269;28;20041;-78
2023/01/28 05:28:18;;;;;;;1.83;1.23;;;;;;;;;;5055279;28;20051;-79
2023/01/28 05:30:44;;;;;;;1.05;1.05;;;;;;;;;;5055146;28;20491;-78
2023/01/28 05:33:09;;;;;;;1.00;1.00;;;;;;;;;;5037570;28;20040;-78
2023/01/28 05:35:35;;;;;;;1.17;0.98;;;;;;;;;;5055110;28;20089;-79
2023/01/28 05:38:01;;;;;;;1.30;1.20;;;;;;;;;;5055367;28;20032;-79
2023/01/28 05:40:26;;;;;;;1.20;1.10;;;;;;;;;;5037233;28;20458;-79
2023/01/28 05:42:51;;;;;;;1.05;1.00;;;;;;;;;;5037587;28;20041;-79
2023/01/28 05:45:17;;;;;;;0.90;0.90;;;;;;;;;;5054828;28;20037;-78
2023/01/28 05:47:42;;;;;;;0.88;0.88;;;;;;;;;;5036083;28;20062;-79
2023/01/28 05:50:08;;;;;;;1.00;1.00;;;;;;;;;;5037184;28;20033;-79
2023/01/28 05:52:34;;;;;;;1.17;1.00;;;;;;;;;;5037374;28;20379;-79
2023/01/28 05:55:00;;;;;;;0.90;0.90;;;;;;;;;;5037074;28;20068;-79
2023/01/28 05:57:25;;;;;;;1.17;1.00;;;;;;;;;;5054725;28;20028;-79
2023/01/28 05:59:51;;;;;;;0.98;0.98;;;;;;;;;;5037032;28;20036;-79
2023/01/28 06:02:16;;;;;;;0.90;0.90;;;;;;;;;;5054873;28;20067;-78
2023/01/28 06:04:41;;;;;;;1.92;1.38;;;;;;;;;;5036520;28;20033;-79
2023/01/28 06:07:07;;;;;;;1.85;0.98;;;;;;;;;;5054583;28;20422;-78
2023/01/28 06:09:32;;;;;;;1.02;0.93;;;;;;;;;;5036615;28;20040;-78
2023/01/28 06:11:57;;;;;;;1.48;1.10;;;;;;;;;;5036925;28;20408;-79
2023/01/28 06:14:23;;;;;;;0.80;0.80;;;;;;;;;;5054453;28;20033;-79
2023/01/28 06:16:49;;;;;;;3.75;1.00;;;;;;;;;;5036776;28;20086;-78
2023/01/28 06:19:14;;;;;;;1.02;0.93;;;;;;;;;;5054822;28;20044;-78
2023/01/28 06:21:39;;;;;;;1.20;1.10;;;;;;;;;;5062952;28;20057;-79
2023/01/28 06:24:05;;;;;;;1.20;1.10;;;;;;;;;;5056184;28;20033;-78
2023/01/28 06:26:30;;;;;;;1.67;0.90;;;;;;;;;;5072755;28;20032;-78
2023/01/28 06:28:55;;;;;;;0.90;0.90;;;;;;;;;;5056132;28;20430;-78
2023/01/28 06:31:21;;;;;;;1.35;1.10;;;;;;;;;;5074040;28;20024;-79
2023/01/28 06:33:46;;;;;;;2.10;1.10;;;;;;;;;;5056324;28;20107;-78
2023/01/28 06:36:12;;;;;;;0.98;0.98;;;;;;;;;;5073954;28;20020;-78
2023/01/28 06:38:37;;;;;;;1.58;1.00;;;;;;;;;;5056186;28;20032;-78
2023/01/28 06:41:03;;;;;;;0.88;0.88;;;;;;;;;;5055855;28;20446;-78
2023/01/28 06:43:29;;;;;;;1.10;0.93;;;;;;;;;;5073793;28;20024;-78
2023/01/28 06:45:57;;;;;;;1.02;1.00;;;;;;;;;;5073895;28;20107;-78
2023/01/28 06:48:23;;;;;;;1.10;1.00;;;;;;;;;;5055845;28;20471;-78
2023/01/28 06:50:49;;;;;;;0.93;0.93;;;;;;;;;;5055888;28;20031;-78
2023/01/28 06:53:15;;;;;;;1.05;1.00;;;;;;;;;;5074233;28;20024;-78
2023/01/28 06:55:41;;;;;;;1.00;1.00;;;;;;;;;;5056089;28;20111;-78
2023/01/28 06:58:06;;;;;;;1.00;1.00;;;;;;;;;;5038573;28;20062;-78
2023/01/28 07:00:32;;;;;;;1.10;1.10;;;;;;;;;;5072781;28;20037;-79
2023/01/28 07:02:57;;;;;;;0.95;0.95;;;;;;;;;;5072947;28;20032;-79
2023/01/28 07:05:23;;;;;;;0.90;0.90;;;;;;;;;;5054699;28;20025;-79
2023/01/28 07:07:49;;;;;;;0.90;0.90;;;;;;;;;;5038029;28;20028;-79
2023/01/28 07:10:14;;;;;;;2.15;0.90;;;;;;;;;;5054672;28;20025;-78
2023/01/28 07:12:40;;;;;;;2.53;1.00;;;;;;;;;;5055075;28;20044;-79
2023/01/28 07:15:06;;;;;;;6.18;1.20;;;;;;;;;;5072829;28;20021;-79
2023/01/28 07:17:31;;;;;;;1.10;1.00;;;;;;;;;;5072375;28;20123;-78
2023/01/28 07:19:56;;;;;;;1.05;0.93;;;;;;;;;;5073313;28;20062;-79
2023/01/28 07:22:22;;;;;;;1.63;1.10;;;;;;;;;;5073462;28;20537;-79
2023/01/28 07:24:47;;;;;;;2.85;0.98;;;;;;;;;;5073340;28;20382;-79
2023/01/28 07:27:13;;;;;;;1.10;1.10;;;;;;;;;;5073090;28;20033;-78
2023/01/28 07:29:38;;;;;;;1.15;1.08;;;;;;;;;;5055359;28;20047;-77
2023/01/28 07:32:06;;;;;;;1.75;1.30;;;;;;;;;;5073211;28;20356;-77
2023/01/28 07:34:31;;;;;;;1.63;1.30;;;;;;;;;;5038902;28;20029;-76
2023/01/28 07:36:57;;;;;;;2.05;1.10;;;;;;;;;;5053649;28;20029;-76
2023/01/28 07:39:24;;;;;;;1.13;1.08;;;;;;;;;;5035513;28;20111;-77
2023/01/28 07:41:49;;;;;;;2.28;1.27;;;;;;;;;;5053330;28;20033;-79
2023/01/28 07:44:14;;;;;;;4.97;1.50;;;;;;;;;;5035348;28;20029;-78
2023/01/28 07:46:40;;;;;;;4.25;1.80;;;;;;;;;;5053174;28;20033;-77
2023/01/28 07:49:05;;;;;;;4.32;1.60;;;;;;;;;;5053259;28;20083;-78
2023/01/28 07:51:31;;;;;;;7.03;2.05;;;;;;;;;;5053206;28;20051;-78
2023/01/28 07:53:56;;;;;;;6.03;2.20;;;;;;;;;;5035293;28;20032;-78
2023/01/28 07:56:21;;;;;;;3.58;1.55;;;;;;;;;;5018319;28;20048;-79
2023/01/28 07:58:50;;;;;;;5.07;1.60;;;;;;;;;;5035159;28;20033;-78
2023/01/28 08:01:17;;;;;;;3.58;1.70;;;;;;;;;;5035022;28;20116;-78
2023/01/28 08:03:42;;;;;;;3.70;1.63;;;;;;;;;;5052879;28;20025;-79
2023/01/28 08:06:08;;;;;;;4.38;1.60;;;;;;;;;;5052763;28;20086;-78
2023/01/28 08:08:33;;;;;;;2.50;1.70;;;;;;;;;;5035029;28;20116;-79
2023/01/28 08:11:07;;;;;;;4.43;1.63;;;;;;;;;;5036531;28;20017;-79
2023/01/28 08:13:33;;;;;;;5.43;2.00;;;;;;;;;;5055367;28;20032;-79
2023/01/28 08:15:58;;;;;;;3.28;1.50;;;;;;;;;;5056890;28;20456;-78
2023/01/28 08:18:24;;;;;;;8.05;2.05;;;;;;;;;;5039282;28;20024;-78
2023/01/28 08:20:54;;;;;;;5.05;1.38;;;;;;;;;;5038629;28;20033;-78
2023/01/28 08:23:19;;;;;;;2.35;1.38;;;;;;;;;;5038609;28;20387;-78
2023/01/28 08:25:46;;;;;;;2.92;1.50;;;;;;;;;;5038761;28;20417;-78
2023/01/28 08:28:13;;;;;;;2.80;1.40;;;;;;;;;;5038822;28;20076;-78
2023/01/28 08:30:39;;;;;;;2.22;1.33;;;;;;;;;;5038609;28;20025;-78
2023/01/28 08:33:09;;;;;;;4.28;1.30;;;;;;;;;;5038538;28;20082;-78
2023/01/28 08:35:35;;;;;;;4.15;1.70;;;;;;;;;;5038957;28;20052;-78
2023/01/28 08:38:01;;;;;;;4.28;1.33;;;;;;;;;;5038656;28;20075;-78
2023/01/28 08:40:27;;;;;;;1.40;1.30;;;;;;;;;;5038367;28;20490;-78
2023/01/28 08:42:53;;;;;;;3.95;1.30;;;;;;;;;;5038443;28;20117;-78
2023/01/28 08:45:27;;;;;;;4.28;1.52;;;;;;;;;;5056170;28;20040;-78
2023/01/28 08:48:06;;;;;;;2.42;1.50;;;;;;;;;;5022765;28;20373;-78
2023/01/28 08:50:34;;;;;;;1.55;1.30;;;;;;;;;;5038123;28;20033;-78
2023/01/28 08:53:02;;;;;;;3.75;1.45;;;;;;;;;;5056104;28;20078;-77
2023/01/28 08:55:27;;;;;;;2.13;1.30;;;;;;;;;;5038124;28;20017;-79
2023/01/28 08:57:53;;;;;;;3.10;1.50;;;;;;;;;;5056105;28;20364;-78
2023/01/28 09:00:19;;;;;;;3.47;1.38;;;;;;;;;;5055750;28;20029;-79
2023/01/28 09:02:45;;;;;;;1.73;1.13;;;;;;;;;;5037851;28;20055;-78
2023/01/28 09:05:10;;;;;;;2.30;1.00;;;;;;;;;;5037814;28;20033;-78
2023/01/28 09:07:36;;;;;;;1.33;1.17;;;;;;;;;;5038053;28;20029;-78
2023/01/28 09:10:03;;;;;;;3.95;1.20;;;;;;;;;;5037866;28;20494;-78
2023/01/28 09:12:28;;;;;;;1.60;1.17;;;;;;;;;;5037921;28;20045;-78
2023/01/28 09:14:54;;;;;;;3.55;1.30;;;;;;;;;;5055516;28;20498;-78
2023/01/28 09:17:20;;;;;;;1.88;1.20;;;;;;;;;;5055461;28;20025;-78
2023/01/28 09:19:45;;;;;;;1.13;1.10;;;;;;;;;;5037496;28;20029;-78
2023/01/28 09:22:11;;;;;;;1.30;1.13;;;;;;;;;;5055009;28;20053;-78
2023/01/28 09:24:36;;;;;;;4.15;1.60;;;;;;;;;;5037462;28;20143;-78
2023/01/28 09:27:02;;;;;;;2.65;1.20;;;;;;;;;;5037377;28;20037;-78
2023/01/28 09:29:27;;;;;;;1.58;1.20;;;;;;;;;;5055186;28;20032;-78
2023/01/28 09:31:52;;;;;;;2.40;1.02;;;;;;;;;;5037326;28;20033;-78
2023/01/28 09:34:18;;;;;;;2.15;1.25;;;;;;;;;;5042887;28;20131;-78
2023/01/28 09:36:43;;;;;;;1.17;1.08;;;;;;;;;;5075418;28;20064;-78
2023/01/28 09:39:09;;;;;;;1.27;1.17;;;;;;;;;;5075204;28;20029;-78
2023/01/28 09:42:05;;;;;;;1.20;1.10;;;;;;;;;;5040519;28;20374;-77
2023/01/28 09:44:53;;;;;;;1.27;1.08;;;;;;;;;;5074983;28;20032;-78
2023/01/28 09:47:47;;;;;;;1.20;1.10;;;;;;;;;;5075427;28;20475;-78
2023/01/28 09:50:23;;;;;;;;;;;;;;;;;;5043218;28;20051;-78
2023/01/28 09:52:50;;;;;;;1.63;1.00;;;;;;;;;;5056988;28;20464;-78
2023/01/28 09:55:21;;;;;;;2.00;1.08;;;;;;;;;;5057192;28;20029;-78
2023/01/28 09:57:52;;;;;;;2.67;0.90;;;;;;;;;;5040396;28;20111;-78
2023/01/28 10:00:21;;;;;;;3.28;1.10;;;;;;;;;;5074923;28;20024;-78
2023/01/28 10:03:27;;;;;;;2.35;1.00;;;;;;;;;;5074598;28;20024;-78
2023/01/28 10:06:09;;;;;;;1.10;1.00;;;;;;;;;;5056685;28;20027;-78
2023/01/28 10:08:37;;;;;;;1.27;1.08;;;;;;;;;;5074773;28;20495;-78
2023/01/28 10:11:13;;;;;;;2.10;1.08;;;;;;;;;;5074195;28;20028;-77
2023/01/28 10:13:54;;;;;;;1.13;1.02;;;;;;;;;;5073950;28;20475;-77
2023/01/28 10:16:27;;;;;;;1.20;1.10;;;;;;;;;;5073998;28;20104;-78
2023/01/28 10:18:57;;;;;;;1.93;1.20;;;;;;;;;;5074266;28;20383;-77
2023/01/28 10:21:22;;;;;;;1.50;1.17;;;;;;;;;;5050342;28;20052;-76
2023/01/28 10:23:51;;;;;;;0.95;0.95;;;;;;;;;;5054437;28;20087;-76
2023/01/28 10:26:33;;;;;;;1.58;1.10;;;;;;;;;;5036714;28;20033;-76
2023/01/28 10:29:05;;;;;;;1.60;1.20;;;;;;;;;;5036590;28;20056;-77
2023/01/28 10:31:34;;;;;;;3.17;1.40;;;;;;;;;;5054264;28;20075;-78
2023/01/28 10:34:00;;;;;;;3.85;2.20;;;;;;;;;;5036329;28;20029;-79
2023/01/28 10:36:26;;;;;;;4.30;1.13;;;;;;;;;;5003390;28;20070;-79
2023/01/28 10:38:51;;;;;;;2.65;1.50;;;;;;;;;;5019501;28;20451;-78
2023/01/28 10:41:20;;;;;;;2.17;1.52;;;;;;;;;;5053788;28;20049;-78
2023/01/28 10:43:46;;;;;;;5.63;1.77;;;;;;;;;;5036350;28;20532;-78
2023/01/28 10:46:17;;;;;;;3.80;1.85;;;;;;;;;;5035989;28;20120;-79
2023/01/28 10:49:03;;;;;;;2.33;1.50;;;;;;;;;;5053728;28;20021;-79
2023/01/28 10:51:40;;;;;;;5.07;1.70;;;;;;;;;;5035914;28;20426;-79
2023/01/28 10:54:22;;;;;;;2.80;1.60;;;;;;;;;;5019309;28;20032;-79
2023/01/28 10:56:57;;;;;;;4.05;1.90;;;;;;;;;;5035716;28;20456;-79
2023/01/28 10:59:29;;;;;;;4.22;2.30;;;;;;;;;;5053605;28;20024;-78
2023/01/28 11:02:04;;;;;;;4.32;2.72;;;;;;;;;;5019407;28;20033;-78
2023/01/28 11:04:32;;;;;;;6.55;2.63;;;;;;;;;;5036005;28;20107;-79
2023/01/28 11:07:01;;;;;;;4.93;2.53;;;;;;;;;;5035799;28;20025;-79
2023/01/28 11:09:30;;;;;;;4.22;2.55;;;;;;;;;;5035737;28;20091;-78
2023/01/28 11:11:56;;;;;;;4.22;2.53;;;;;;;;;;5035704;28;20033;-79
2023/01/28 11:14:24;;;;;;;3.83;2.70;;;;;;;;;;5035478;28;20037;-78
2023/01/28 11:16:51;;;;;;;5.05;2.90;;;;;;;;;;5035582;28;20025;-78
2023/01/28 11:19:18;;;;;;;3.63;2.63;;;;;;;;;;5035342;28;20435;-78
2023/01/28 11:21:49;;;;;;;4.65;2.70;;;;;;;;;;5035356;28;20048;-78
2023/01/28 11:24:19;;;;;;;4.18;2.50;;;;;;;;;;5035439;28;20025;-79
2023/01/28 11:26:48;;;;;;;4.38;2.42;;;;;;;;;;5018808;28;20460;-78
2023/01/28 11:29:41;;;;;;;4.82;2.38;;;;;;;;;;5035425;28;20025;-78
2023/01/28 11:32:18;;;;;;;5.05;2.70;;;;;;;;;;5050014;28;20033;-78
2023/01/28 11:34:49;;;;;;;4.38;2.70;;;;;;;;;;5035373;28;20361;-79
2023/01/28 11:37:17;;;;;;;4.57;2.63;;;;;;;;;;5018670;28;20021;-78
2023/01/28 11:39:43;;;;;;;3.60;2.42;;;;;;;;;;5053123;28;20484;-78
2023/01/28 11:42:19;;;;;;;3.85;2.42;;;;;;;;;;5035533;28;20048;-77
2023/01/28 11:44:45;;;;;;;3.72;2.30;;;;;;;;;;5037157;28;20452;-79
2023/01/28 11:47:35;;;;;;;8.13;2.47;;;;;;;;;;5039193;28;20158;-79
2023/01/28 11:50:16;;;;;;;4.95;2.35;;;;;;;;;;5039302;28;20111;-80
2023/01/28 11:52:54;;;;;;;3.83;2.67;;;;;;;;;;5039116;28;20025;-79
2023/01/28 11:55:40;;;;;;;6.20;2.60;;;;;;;;;;5022706;28;20017;-79
2023/01/28 11:58:35;;;;;;;5.80;2.30;;;;;;;;;;5057155;28;20475;-79
2023/01/28 12:01:30;;;;;;;3.03;2.22;;;;;;;;;;4990421;28;20044;-80
2023/01/28 12:04:07;;;;;;;4.00;2.03;;;;;;;;;;5030216;28;20037;-80
2023/01/28 12:06:41;;;;;;;3.03;2.38;;;;;;;;;;5056768;28;20021;-80
2023/01/28 12:09:35;;;;;;;3.92;2.22;;;;;;;;;;5038973;28;20029;-80
2023/01/28 12:12:26;;;;;;;3.50;2.40;;;;;;;;;;5038948;28;20063;-79
2023/01/28 12:15:19;;;;;;;5.90;2.10;;;;;;;;;;5038513;28;20059;-79
2023/01/28 12:18:14;;;;;;;3.43;2.03;;;;;;;;;;5056327;28;20106;-80
2023/01/28 12:20:42;;;;;;;2.55;1.90;;;;;;;;;;5056631;28;20262;-78
2023/01/28 12:23:10;;;;;;;5.70;2.22;;;;;;;;;;5076805;28;20399;-77
2023/01/28 12:25:54;;;;;;;3.22;1.70;;;;;;;;;;5076369;28;20074;-79
2023/01/28 12:28:53;;;;;;;3.58;2.00;;;;;;;;;;5075856;28;20554;-79
2023/01/28 12:31:41;;;;;;;3.53;1.95;;;;;;;;;;5059842;28;20413;-78
2023/01/28 12:34:35;;;;;;;3.08;2.10;;;;;;;;;;5029566;28;20026;-78
2023/01/28 12:37:08;;;;;;;11.67;2.30;;;;;;;;;;5035439;28;20561;-78
2023/01/28 12:39:52;;;;;;;3.67;1.98;;;;;;;;;;5035585;28;20057;-78
2023/01/28 12:42:26;;;;;;;6.32;1.90;;;;;;;;;;5036291;28;20041;-77
2023/01/28 12:44:58;;;;;;;3.60;2.03;;;;;;;;;;5034995;28;20439;-78
2023/01/28 12:47:35;;;;;;;5.93;1.80;;;;;;;;;;5034809;28;20129;-77
2023/01/28 12:50:14;;;;;;;2.85;1.70;;;;;;;;;;5035170;28;20435;-78
2023/01/28 12:52:45;;;;;;;3.67;1.60;;;;;;;;;;5018275;28;20036;-77
2023/01/28 12:55:41;;;;;;;5.72;1.70;;;;;;;;;;5018667;28;20036;-77
2023/01/28 12:58:15;;;;;;;2.38;1.63;;;;;;;;;;4997157;28;20115;-77
2023/01/28 13:00:45;;;;;;;11.00;2.10;;;;;;;;;;5035941;28;20025;-78
2023/01/28 13:03:16;;;;;;;3.45;1.70;;;;;;;;;;5018119;28;20120;-79
2023/01/28 13:06:14;;;;;;;4.63;1.50;;;;;;;;;;5034547;28;20383;-78
2023/01/28 13:08:39;;;;;;;3.17;2.00;;;;;;;;;;5006594;28;20029;-78
2023/01/28 13:11:12;;;;;;;5.32;1.35;;;;;;;;;;5035828;28;20383;-78
2023/01/28 13:13:41;;;;;;;4.30;1.50;;;;;;;;;;5035743;28;20029;-78
2023/01/28 13:16:08;;;;;;;1.90;1.40;;;;;;;;;;5034416;28;20468;-78
2023/01/28 13:18:33;;;;;;;5.75;2.15;;;;;;;;;;5034402;28;20024;-78
2023/01/28 13:21:00;;;;;;;6.28;1.90;;;;;;;;;;5036068;28;20053;-78
2023/01/28 13:23:42;;;;;;;2.60;1.48;;;;;;;;;;5048811;28;20043;-78
2023/01/28 13:26:30;;;;;;;5.00;2.22;;;;;;;;;;5054755;28;20475;-78
2023/01/28 13:29:17;;;;;;;6.03;1.90;;;;;;;;;;5020858;28;20502;-78
2023/01/28 13:31:45;;;;;;;6.55;1.50;;;;;;;;;;5053983;28;20025;-78
2023/01/28 13:34:35;;;;;;;3.70;1.40;;;;;;;;;;5055481;28;20171;-78
2023/01/28 13:37:32;;;;;;;2.38;1.40;;;;;;;;;;5037345;28;20082;-79
2023/01/28 13:40:05;;;;;;;5.43;1.52;;;;;;;;;;5037294;28;20040;-79
2023/01/28 13:42:31;;;;;;;2.10;1.52;;;;;;;;;;5055328;28;20120;-79
2023/01/28 13:45:16;;;;;;;1.60;1.40;;;;;;;;;;5037008;28;20562;-78
2023/01/28 13:47:48;;;;;;;3.85;1.50;;;;;;;;;;5054720;28;20028;-78
2023/01/28 13:50:24;;;;;;;3.47;1.23;;;;;;;;;;5037137;28;20369;-78
2023/01/28 13:53:14;;;;;;;4.30;1.30;;;;;;;;;;5020415;28;20020;-76
2023/01/28 13:55:41;;;;;;;1.63;1.30;;;;;;;;;;5054509;28;20361;-78
2023/01/28 13:58:28;;;;;;;3.03;1.50;;;;;;;;;;5036810;28;20021;-78
2023/01/28 14:01:11;;;;;;;3.20;1.50;;;;;;;;;;5054647;28;20029;-78
2023/01/28 14:03:43;;;;;;;3.63;1.40;;;;;;;;;;5037373;28;20372;-78
2023/01/28 14:06:53;;;;;;;4.43;1.40;;;;;;;;;;5054479;28;20123;-78
2023/01/28 14:09:49;;;;;;;3.88;1.73;;;;;;;;;;5035863;28;20430;-79
2023/01/28 14:12:23;;;;;;;2.35;1.20;;;;;;;;;;5036532;28;20029;-78
2023/01/28 14:15:04;;;;;;;3.08;1.27;;;;;;;;;;5054672;28;20423;-78
2023/01/28 14:17:48;;;;;;;4.22;1.33;;;;;;;;;;5054110;28;20024;-78
2023/01/28 14:20:19;;;;;;;2.22;1.45;;;;;;;;;;5036576;28;20033;-78
2023/01/28 14:22:45;;;;;;;1.88;1.30;;;;;;;;;;5034351;28;20036;-78
2023/01/28 14:25:28;;;;;;;1.48;1.10;;;;;;;;;;5019790;28;20461;-79
2023/01/28 14:27:53;;;;;;;1.55;1.10;;;;;;;;;;5036300;28;20422;-78
2023/01/28 14:30:23;;;;;;;1.38;1.10;;;;;;;;;;5054171;28;20032;-78
2023/01/28 14:32:51;;;;;;;2.45;1.30;;;;;;;;;;5036132;28;20376;-78
2023/01/28 14:35:19;;;;;;;5.40;2.30;;;;;;;;;;5019671;28;20023;-79
2023/01/28 14:37:45;;;;;;;3.38;1.60;;;;;;;;;;5036541;28;20059;-78
2023/01/28 14:40:14;;;;;;;3.90;1.27;;;;;;;;;;5053894;28;20056;-79
2023/01/28 14:42:46;;;;;;;3.67;1.38;;;;;;;;;;5036351;28;20036;-79
2023/01/28 14:45:23;;;;;;;3.47;1.27;;;;;;;;;;5035820;28;20033;-79
2023/01/28 14:48:10;;;;;;;1.42;1.10;;;;;;;;;;5053866;28;20574;-80
2023/01/28 14:51:01;;;;;;;7.18;1.48;;;;;;;;;;5053758;28;20035;-79
2023/01/28 14:53:50;;;;;;;4.03;1.30;;;;;;;;;;5050534;28;20040;-79
2023/01/28 14:56:21;;;;;;;5.25;1.45;;;;;;;;;;5036219;28;20017;-79
2023/01/28 14:59:15;;;;;;;4.50;1.40;;;;;;;;;;5054163;28;20035;-80
2023/01/28 15:01:45;;;;;;;5.77;1.30;;;;;;;;;;5053841;28;20044;-79
2023/01/28 15:04:40;;;;;;;4.25;1.52;;;;;;;;;;5035735;28;20040;-80
2023/01/28 15:07:32;;;;;;;2.92;1.60;;;;;;;;;;5040521;28;20072;-77
2023/01/28 15:10:03;;;;;;;1.75;1.35;;;;;;;;;;5034275;28;20041;-78
2023/01/28 15:12:32;;;;;;;9.15;1.77;;;;;;;;;;5036139;28;20383;-78
2023/01/28 15:14:59;;;;;;;2.70;1.23;;;;;;;;;;5035528;28;20396;-78
2023/01/28 15:17:26;;;;;;;3.67;1.45;;;;;;;;;;5018253;28;20028;-79
2023/01/28 15:19:56;;;;;;;2.40;1.30;;;;;;;;;;5018244;28;20471;-79
2023/01/28 15:22:27;;;;;;;2.33;1.52;;;;;;;;;;5052678;28;20412;-78
2023/01/28 15:24:53;;;;;;;2.50;1.27;;;;;;;;;;5035359;28;20425;-77
2023/01/28 15:27:26;;;;;;;3.55;1.40;;;;;;;;;;5034949;28;20032;-78
2023/01/28 15:29:54;;;;;;;4.03;1.20;;;;;;;;;;5035254;28;20029;-79
2023/01/28 15:32:37;;;;;;;5.65;1.50;;;;;;;;;;5068714;28;20480;-78
2023/01/28 15:35:11;;;;;;;2.03;1.40;;;;;;;;;;5034793;28;20059;-79